Time;durP1;ratioP1;P1;durP2;ratioP2;P2;SDS_P1;SDS_P2;PMS_P1;PMS_P2;Temp;Humidity;BMP_temperature;BMP_pressure;BME280_temperature;BME280_humidity;BME280_pressure;Samples;Min_cycle;Max_cycle;Signal;HPM_P1;HPM_P2
2020/12/30 00:01:29;;;;;;;4.07;2.38;;;3.00;83.40;;;;;;5027388;28;20032;-66
2020/12/30 00:03:54;;;;;;;4.82;2.40;;;3.00;83.30;;;;;;5032649;28;20029;-67
2020/12/30 00:06:21;;;;;;;4.80;2.72;;;3.00;83.30;;;;;;5034109;28;20151;-67
2020/12/30 00:08:47;;;;;;;3.88;2.50;;;3.00;83.20;;;;;;5033710;28;20065;-67
2020/12/30 00:11:13;;;;;;;6.10;3.20;;;2.90;83.20;;;;;;5028310;28;20050;-66
2020/12/30 00:13:39;;;;;;;5.60;3.00;;;2.90;83.20;;;;;;5030940;28;20041;-66
2020/12/30 00:16:05;;;;;;;8.90;2.80;;;2.90;83.30;;;;;;5025008;28;20021;-66
2020/12/30 00:18:31;;;;;;;3.70;2.72;;;2.90;83.30;;;;;;5033235;28;20033;-66
2020/12/30 00:20:59;;;;;;;5.38;2.88;;;2.90;83.40;;;;;;5033510;28;20528;-67
2020/12/30 00:23:25;;;;;;;3.25;2.53;;;2.90;83.30;;;;;;5033331;28;20028;-66
2020/12/30 00:25:51;;;;;;;3.10;2.70;;;2.90;83.40;;;;;;5031289;28;20067;-66
2020/12/30 00:28:17;;;;;;;4.38;2.55;;;2.80;83.30;;;;;;5033518;28;20038;-66
2020/12/30 00:30:43;;;;;;;6.03;2.90;;;2.80;83.40;;;;;;5031301;28;20056;-67
2020/12/30 00:33:09;;;;;;;4.53;2.65;;;2.80;83.40;;;;;;5033312;28;20051;-66
2020/12/30 00:35:34;;;;;;;3.53;2.35;;;2.80;83.50;;;;;;5032551;28;20045;-67
2020/12/30 00:38:00;;;;;;;4.70;2.80;;;2.80;83.50;;;;;;5018974;28;20036;-67
2020/12/30 00:40:26;;;;;;;4.70;2.70;;;2.90;83.50;;;;;;5032614;28;20367;-66
2020/12/30 00:42:51;;;;;;;4.72;3.00;;;2.90;83.40;;;;;;5025188;28;20021;-66
2020/12/30 00:45:17;;;;;;;5.07;3.15;;;2.90;83.40;;;;;;5027072;28;20041;-67
2020/12/30 00:47:42;;;;;;;6.00;2.85;;;2.90;83.30;;;;;;5023760;28;20122;-67
2020/12/30 00:50:08;;;;;;;4.32;2.60;;;2.90;83.30;;;;;;5029255;28;20067;-67
2020/12/30 00:52:35;;;;;;;3.88;2.50;;;2.90;83.30;;;;;;5032538;28;20033;-66
2020/12/30 00:55:01;;;;;;;4.38;2.70;;;2.90;83.20;;;;;;5030309;28;20033;-66
2020/12/30 00:57:27;;;;;;;4.68;2.28;;;2.90;83.30;;;;;;5032551;28;20418;-67
2020/12/30 00:59:53;;;;;;;3.78;2.60;;;2.90;83.20;;;;;;5032787;28;20041;-67
2020/12/30 01:02:19;;;;;;;3.15;2.58;;;2.90;83.30;;;;;;5031919;28;20037;-66
2020/12/30 01:04:45;;;;;;;3.72;2.40;;;2.90;83.30;;;;;;5031644;28;20036;-66
2020/12/30 01:07:11;;;;;;;3.83;2.67;;;2.90;83.30;;;;;;5035146;28;20036;-66
2020/12/30 01:09:37;;;;;;;3.05;2.53;;;2.90;83.30;;;;;;5023144;28;20026;-66
2020/12/30 01:12:05;;;;;;;4.32;2.65;;;2.90;83.40;;;;;;4999109;28;20025;-67
2020/12/30 01:14:31;;;;;;;4.45;2.60;;;2.80;83.30;;;;;;5013862;28;20034;-67
2020/12/30 01:16:57;;;;;;;3.65;2.50;;;2.90;83.40;;;;;;5032328;28;20032;-66
2020/12/30 01:19:23;;;;;;;4.53;2.47;;;2.90;83.50;;;;;;5031205;28;20029;-66
2020/12/30 01:21:49;;;;;;;4.63;2.30;;;2.90;83.40;;;;;;5032186;28;20159;-67
2020/12/30 01:24:15;;;;;;;3.85;2.67;;;2.80;83.40;;;;;;5031431;28;20036;-66
2020/12/30 01:26:42;;;;;;;4.32;2.75;;;2.90;83.40;;;;;;5032427;28;20025;-66
2020/12/30 01:29:07;;;;;;;4.43;2.50;;;2.90;83.40;;;;;;5031727;28;20061;-67
2020/12/30 01:31:35;;;;;;;4.68;2.55;;;2.80;83.20;;;;;;5014182;28;20492;-67
2020/12/30 01:34:01;;;;;;;3.00;2.10;;;2.90;83.30;;;;;;5031158;28;20147;-67
2020/12/30 01:36:26;;;;;;;4.05;2.47;;;2.80;83.30;;;;;;5032176;28;20656;-67
2020/12/30 01:38:53;;;;;;;5.13;2.55;;;2.80;83.30;;;;;;5038753;28;20068;-66
2020/12/30 01:41:19;;;;;;;4.43;2.17;;;2.80;83.30;;;;;;5014370;28;20045;-67
2020/12/30 01:44:05;;;;;;;2.55;2.35;;;2.90;83.30;;;;;;5026391;28;20088;-66
2020/12/30 01:46:38;;;;;;;3.55;2.30;;;2.90;83.30;;;;;;5012416;28;20042;-67
2020/12/30 01:49:06;;;;;;;5.05;2.58;;;2.80;83.20;;;;;;5015473;28;20018;-66
2020/12/30 01:51:32;;;;;;;2.58;2.28;;;2.80;83.20;;;;;;5031383;28;20021;-66
2020/12/30 01:53:59;;;;;;;2.92;2.13;;;2.80;83.30;;;;;;5030998;28;20029;-67
2020/12/30 01:56:30;;;;;;;4.60;2.40;;;2.80;83.30;;;;;;5031570;28;20079;-66
2020/12/30 01:58:55;;;;;;;5.30;2.42;;;2.80;83.40;;;;;;5031805;28;20018;-66
2020/12/30 02:01:28;;;;;;;4.18;2.30;;;2.80;83.40;;;;;;5031546;28;20539;-66
2020/12/30 02:03:56;;;;;;;3.17;2.10;;;2.80;83.50;;;;;;5009423;28;20036;-67
2020/12/30 02:06:22;;;;;;;5.13;2.30;;;2.80;83.50;;;;;;5012140;28;20049;-66
2020/12/30 02:08:49;;;;;;;2.17;1.88;;;2.80;83.50;;;;;;5015746;28;20068;-67
2020/12/30 02:11:15;;;;;;;2.40;2.17;;;2.70;83.40;;;;;;5029824;28;20028;-66
2020/12/30 02:13:40;;;;;;;4.63;2.40;;;2.70;83.40;;;;;;5030885;28;20382;-66
2020/12/30 02:16:06;;;;;;;3.42;2.03;;;2.70;83.40;;;;;;5029985;28;20021;-66
2020/12/30 02:18:32;;;;;;;2.72;1.83;;;2.70;83.60;;;;;;5031269;28;20029;-66
2020/12/30 02:20:57;;;;;;;2.20;2.00;;;2.70;83.60;;;;;;5031000;28;20032;-67
2020/12/30 02:23:23;;;;;;;3.20;2.00;;;2.70;83.60;;;;;;5030857;28;20022;-66
2020/12/30 02:25:49;;;;;;;2.58;2.00;;;2.80;83.60;;;;;;5012181;28;20120;-66
2020/12/30 02:28:14;;;;;;;3.10;2.20;;;2.80;83.60;;;;;;5028969;28;20108;-66
2020/12/30 02:30:40;;;;;;;2.90;2.30;;;2.80;83.60;;;;;;5011614;28;20029;-67
2020/12/30 02:33:09;;;;;;;2.97;1.85;;;2.80;83.50;;;;;;5030244;28;20072;-66
2020/12/30 02:35:35;;;;;;;4.50;2.17;;;2.80;83.60;;;;;;5029708;28;20478;-66
2020/12/30 02:38:01;;;;;;;2.90;2.00;;;2.80;83.60;;;;;;5034439;28;20030;-67
2020/12/30 02:40:27;;;;;;;1.98;1.80;;;2.80;83.50;;;;;;5009870;28;20192;-67
2020/12/30 02:42:52;;;;;;;3.40;2.00;;;2.90;83.60;;;;;;5029554;28;20057;-67
2020/12/30 02:45:19;;;;;;;3.90;2.22;;;2.90;83.40;;;;;;5029229;28;20041;-67
2020/12/30 02:47:44;;;;;;;2.13;1.92;;;2.80;83.50;;;;;;5030803;28;20029;-66
2020/12/30 02:50:11;;;;;;;4.28;2.20;;;2.80;83.50;;;;;;5030727;28;20440;-66
2020/12/30 02:52:37;;;;;;;5.60;2.45;;;2.80;83.50;;;;;;5012683;28;20025;-66
2020/12/30 02:55:02;;;;;;;2.25;2.00;;;2.80;83.50;;;;;;5029375;28;20422;-67
2020/12/30 02:57:28;;;;;;;4.22;2.00;;;2.80;83.50;;;;;;5030744;28;20529;-67
2020/12/30 02:59:57;;;;;;;2.97;1.77;;;2.80;83.60;;;;;;5030725;28;20536;-67
2020/12/30 03:02:25;;;;;;;2.60;2.17;;;2.80;83.60;;;;;;5029145;28;20025;-66
2020/12/30 03:04:52;;;;;;;3.28;1.98;;;2.70;83.60;;;;;;5029667;28;20055;-66
2020/12/30 03:07:18;;;;;;;2.75;1.90;;;2.70;83.60;;;;;;5034717;28;20055;-67
2020/12/30 03:09:44;;;;;;;2.60;2.00;;;2.70;83.50;;;;;;5008904;28;20068;-67
2020/12/30 03:12:09;;;;;;;3.92;2.17;;;2.70;83.50;;;;;;5010813;28;20447;-67
2020/12/30 03:14:35;;;;;;;4.07;1.95;;;2.60;83.50;;;;;;5012760;28;20025;-67
2020/12/30 03:17:00;;;;;;;3.50;2.20;;;2.60;83.60;;;;;;5029679;28;20021;-67
2020/12/30 03:19:26;;;;;;;3.47;2.00;;;2.60;83.70;;;;;;5028349;28;20038;-66
2020/12/30 03:21:56;;;;;;;2.72;2.05;;;2.60;83.70;;;;;;5029855;28;20052;-67
2020/12/30 03:24:22;;;;;;;2.38;2.13;;;2.60;83.70;;;;;;5029036;28;20124;-67
2020/12/30 03:26:48;;;;;;;2.80;2.10;;;2.50;83.70;;;;;;5030337;28;20025;-67
2020/12/30 03:29:14;;;;;;;3.53;2.08;;;2.60;83.80;;;;;;5030284;28;20075;-66
2020/12/30 03:31:39;;;;;;;2.63;2.08;;;2.50;83.80;;;;;;5030001;28;20032;-67
2020/12/30 03:34:05;;;;;;;4.15;1.95;;;2.50;84.30;;;;;;5010814;28;20030;-66
2020/12/30 03:36:30;;;;;;;3.17;2.22;;;2.50;83.80;;;;;;5030206;28;20068;-67
2020/12/30 03:38:56;;;;;;;3.17;2.15;;;2.50;83.90;;;;;;5042944;23;20464;-75
2020/12/30 03:41:21;;;;;;;6.30;2.35;;;2.50;83.90;;;;;;5036363;28;20105;-72
2020/12/30 03:43:47;;;;;;;2.85;1.85;;;2.50;83.90;;;;;;5031037;28;20028;-73
2020/12/30 03:46:12;;;;;;;4.72;2.15;;;2.50;84.00;;;;;;5048950;28;20040;-73
2020/12/30 03:48:38;;;;;;;4.07;2.30;;;2.50;84.00;;;;;;5050644;28;20499;-73
2020/12/30 03:51:04;;;;;;;4.18;2.17;;;2.50;84.00;;;;;;5049232;28;20025;-73
2020/12/30 03:53:29;;;;;;;3.25;2.00;;;2.50;84.00;;;;;;5050796;28;20036;-73
2020/12/30 03:55:55;;;;;;;2.97;2.00;;;2.60;84.10;;;;;;5048769;28;20041;-73
2020/12/30 03:58:20;;;;;;;4.10;2.33;;;2.60;84.10;;;;;;5045068;28;20060;-73
2020/12/30 04:00:46;;;;;;;2.85;1.90;;;2.60;84.10;;;;;;5030652;28;20048;-73
2020/12/30 04:03:12;;;;;;;3.13;2.03;;;2.60;84.10;;;;;;5030634;28;20029;-73
2020/12/30 04:05:38;;;;;;;4.18;2.13;;;2.60;84.00;;;;;;5049853;28;20094;-74
2020/12/30 04:08:04;;;;;;;2.63;2.05;;;2.60;84.00;;;;;;5047441;28;20049;-73
2020/12/30 04:10:30;;;;;;;2.28;2.08;;;2.60;83.90;;;;;;5043973;28;20032;-73
2020/12/30 04:12:55;;;;;;;2.35;1.80;;;2.60;83.90;;;;;;5050653;28;20091;-73
2020/12/30 04:15:21;;;;;;;2.35;2.10;;;2.50;83.90;;;;;;5049684;28;20029;-73
2020/12/30 04:17:47;;;;;;;2.10;1.90;;;2.50;83.90;;;;;;5050385;28;20109;-73
2020/12/30 04:20:12;;;;;;;2.42;2.15;;;2.40;84.00;;;;;;5050061;28;20033;-73
2020/12/30 04:22:38;;;;;;;4.60;2.22;;;2.40;84.10;;;;;;5045053;28;20021;-75
2020/12/30 04:25:03;;;;;;;2.63;2.42;;;2.30;84.20;;;;;;5036898;28;20543;-73
2020/12/30 04:27:29;;;;;;;3.78;2.15;;;2.30;84.30;;;;;;5048854;28;20552;-73
2020/12/30 04:29:55;;;;;;;2.78;2.20;;;2.30;84.30;;;;;;5049055;28;20400;-73
2020/12/30 04:32:20;;;;;;;2.13;1.90;;;2.30;84.20;;;;;;5048990;28;20424;-73
2020/12/30 04:34:46;;;;;;;2.47;2.03;;;2.30;84.20;;;;;;5049587;28;20039;-73
2020/12/30 04:37:12;;;;;;;2.85;2.35;;;2.30;84.30;;;;;;5050479;28;20017;-73
2020/12/30 04:39:38;;;;;;;4.38;3.03;;;2.30;84.20;;;;;;5044501;28;20044;-72
2020/12/30 04:42:05;;;;;;;4.00;3.25;;;2.20;84.10;;;;;;5053795;28;20025;-72
2020/12/30 04:44:33;;;;;;;2.70;2.15;;;2.20;84.20;;;;;;5051672;28;20059;-74
2020/12/30 04:47:02;;;;;;;3.58;2.38;;;2.20;84.10;;;;;;5052177;28;20112;-72
2020/12/30 04:49:29;;;;;;;3.28;2.22;;;2.10;84.10;;;;;;5053667;28;20041;-73
2020/12/30 04:51:56;;;;;;;2.67;2.13;;;2.10;84.30;;;;;;5052092;28;20274;-74
2020/12/30 04:54:23;;;;;;;4.57;2.33;;;2.10;84.40;;;;;;5052931;28;20071;-73
2020/12/30 04:56:58;;;;;;;2.42;2.20;;;2.10;84.50;;;;;;5053613;28;20017;-73
2020/12/30 04:59:52;;;;;;;2.78;2.42;;;2.10;84.40;;;;;;5053416;28;20021;-72
2020/12/30 05:02:22;;;;;;;4.13;2.15;;;2.10;84.30;;;;;;5049267;28;20064;-73
2020/12/30 05:04:48;;;;;;;4.68;2.88;;;2.10;84.10;;;;;;5032832;28;20029;-73
2020/12/30 05:07:14;;;;;;;5.28;2.97;;;2.10;84.10;;;;;;5033477;28;20025;-73
2020/12/30 05:09:42;;;;;;;5.53;2.67;;;2.00;84.10;;;;;;5038334;28;20475;-74
2020/12/30 05:12:17;;;;;;;2.83;2.15;;;2.00;84.20;;;;;;5033138;28;20104;-73
2020/12/30 05:14:43;;;;;;;3.83;2.13;;;2.00;84.30;;;;;;5044028;28;20029;-72
2020/12/30 05:17:10;;;;;;;4.75;2.17;;;1.90;84.30;;;;;;5053134;28;20021;-73
2020/12/30 05:19:36;;;;;;;4.60;2.55;;;1.90;84.50;;;;;;5051678;28;20125;-73
2020/12/30 05:22:02;;;;;;;4.43;2.30;;;1.90;85.10;;;;;;5052783;28;20481;-74
2020/12/30 05:24:29;;;;;;;2.30;1.88;;;1.90;84.50;;;;;;5034185;28;20072;-73
2020/12/30 05:26:55;;;;;;;4.25;2.67;;;1.90;84.50;;;;;;5032928;28;20029;-73
2020/12/30 05:29:23;;;;;;;3.88;2.33;;;1.90;84.60;;;;;;5032876;28;20029;-74
2020/12/30 05:31:53;;;;;;;3.22;2.22;;;1.90;84.70;;;;;;5032955;28;20052;-73
2020/12/30 05:34:20;;;;;;;3.45;2.40;;;1.90;84.50;;;;;;5047699;28;20028;-73
2020/12/30 05:36:46;;;;;;;2.72;2.20;;;1.90;84.50;;;;;;5052838;28;20029;-72
2020/12/30 05:39:29;;;;;;;2.70;2.28;;;1.90;84.60;;;;;;5050428;28;20029;-75
2020/12/30 05:42:17;;;;;;;8.25;2.22;;;1.80;84.60;;;;;;5052429;28;20025;-73
2020/12/30 05:44:45;;;;;;;2.75;2.50;;;1.80;84.60;;;;;;5041254;28;20439;-73
2020/12/30 05:47:15;;;;;;;2.58;2.25;;;1.80;84.60;;;;;;5032681;28;20094;-74
2020/12/30 05:49:42;;;;;;;3.22;2.35;;;1.90;84.60;;;;;;5049464;28;20033;-73
2020/12/30 05:52:20;;;;;;;3.08;2.15;;;1.90;84.50;;;;;;5051753;28;20032;-73
2020/12/30 05:55:00;;;;;;;4.47;2.40;;;1.90;84.40;;;;;;5050615;28;20037;-72
2020/12/30 05:57:29;;;;;;;3.38;2.10;;;1.80;84.30;;;;;;5052017;28;20029;-73
2020/12/30 06:00:03;;;;;;;2.30;2.10;;;1.80;84.30;;;;;;5052121;28;20017;-73
2020/12/30 06:02:30;;;;;;;4.20;2.10;;;1.80;84.40;;;;;;5050805;28;20396;-73
2020/12/30 06:05:07;;;;;;;3.83;2.17;;;1.70;84.40;;;;;;5051460;28;20028;-74
2020/12/30 06:07:35;;;;;;;4.00;2.53;;;1.70;84.60;;;;;;5050654;28;20374;-74
2020/12/30 06:10:03;;;;;;;6.10;2.30;;;1.70;84.70;;;;;;5032170;28;20079;-73
2020/12/30 06:12:31;;;;;;;3.85;2.35;;;1.70;84.80;;;;;;5036021;28;20116;-73
2020/12/30 06:14:57;;;;;;;5.78;1.88;;;1.70;84.90;;;;;;5051388;28;20020;-73
2020/12/30 06:17:30;;;;;;;3.00;2.50;;;1.70;84.80;;;;;;5049862;28;20032;-73
2020/12/30 06:19:56;;;;;;;2.10;1.90;;;1.70;84.90;;;;;;5030527;28;20155;-74
2020/12/30 06:22:22;;;;;;;3.97;2.45;;;1.80;84.90;;;;;;5035403;28;20092;-74
2020/12/30 06:24:53;;;;;;;10.88;6.30;;;1.80;84.90;;;;;;5051285;28;20033;-73
2020/12/30 06:27:22;;;;;;;5.47;3.40;;;1.80;84.90;;;;;;5043975;28;20039;-73
2020/12/30 06:29:52;;;;;;;4.90;2.40;;;1.90;84.80;;;;;;5051676;28;20047;-72
2020/12/30 06:32:29;;;;;;;2.55;2.33;;;1.90;84.70;;;;;;5051347;28;20476;-75
2020/12/30 06:34:54;;;;;;;2.92;2.40;;;1.90;84.60;;;;;;5050991;28;20078;-73
2020/12/30 06:37:30;;;;;;;3.38;2.13;;;1.90;84.60;;;;;;5051452;28;20380;-76
2020/12/30 06:40:19;;;;;;;3.67;2.30;;;1.90;84.70;;;;;;5049757;28;20033;-74
2020/12/30 06:42:45;;;;;;;2.75;2.15;;;1.90;84.80;;;;;;5050315;28;20028;-72
2020/12/30 06:45:32;;;;;;;4.63;2.30;;;1.90;84.80;;;;;;5050950;28;20021;-73
2020/12/30 06:47:59;;;;;;;3.33;2.28;;;2.00;84.90;;;;;;5049689;28;20029;-73
2020/12/30 06:50:26;;;;;;;4.45;2.30;;;2.10;84.80;;;;;;5051622;28;20095;-72
2020/12/30 06:52:51;;;;;;;5.68;2.38;;;2.10;84.70;;;;;;5051272;28;20477;-72
2020/12/30 06:55:17;;;;;;;2.88;2.20;;;2.20;84.70;;;;;;5049658;28;20029;-73
2020/12/30 06:57:45;;;;;;;4.18;2.83;;;2.20;84.60;;;;;;5051389;28;20101;-76
2020/12/30 07:00:26;;;;;;;4.28;2.60;;;2.20;84.60;;;;;;5051051;28;20077;-73
2020/12/30 07:03:12;;;;;;;3.38;2.40;;;2.30;84.50;;;;;;5051233;28;20052;-72
2020/12/30 07:05:38;;;;;;;3.83;2.47;;;2.30;84.50;;;;;;5049372;28;20020;-74
2020/12/30 07:08:03;;;;;;;2.72;2.40;;;2.30;84.40;;;;;;5048260;28;20043;-73
2020/12/30 07:10:29;;;;;;;2.85;2.30;;;2.20;84.40;;;;;;5031194;28;20033;-74
2020/12/30 07:12:54;;;;;;;4.88;2.55;;;2.20;84.50;;;;;;5031130;28;20064;-72
2020/12/30 07:15:26;;;;;;;4.53;2.33;;;2.20;84.60;;;;;;5029648;28;20018;-73
2020/12/30 07:17:54;;;;;;;3.65;2.47;;;2.20;84.60;;;;;;5031246;28;20022;-73
2020/12/30 07:20:24;;;;;;;2.22;2.10;;;2.20;84.60;;;;;;5030031;28;20518;-73
2020/12/30 07:22:49;;;;;;;4.45;2.25;;;2.20;84.50;;;;;;5050838;28;20025;-72
2020/12/30 07:25:15;;;;;;;4.10;2.45;;;2.20;84.40;;;;;;5049082;28;20028;-74
2020/12/30 07:27:41;;;;;;;4.28;2.45;;;2.20;84.50;;;;;;5050859;28;20040;-72
2020/12/30 07:30:08;;;;;;;4.93;2.38;;;2.20;84.50;;;;;;5051331;28;20104;-76
2020/12/30 07:32:34;;;;;;;4.07;2.75;;;2.30;84.50;;;;;;5053765;28;20377;-76
2020/12/30 07:35:00;;;;;;;4.75;2.40;;;2.20;84.40;;;;;;5052447;28;20029;-75
2020/12/30 07:37:26;;;;;;;4.20;2.53;;;2.20;84.40;;;;;;5053187;28;20508;-74
2020/12/30 07:39:53;;;;;;;3.72;2.20;;;2.20;84.50;;;;;;5065636;28;20389;-73
2020/12/30 07:42:23;;;;;;;3.83;2.33;;;2.20;84.60;;;;;;5033580;28;20517;-71
2020/12/30 07:44:49;;;;;;;2.85;2.03;;;2.20;84.60;;;;;;5039967;28;20452;-71
2020/12/30 07:47:16;;;;;;;2.92;2.10;;;2.20;84.60;;;;;;5050492;28;20024;-73
2020/12/30 07:49:42;;;;;;;9.40;5.70;;;2.30;84.80;;;;;;5050647;28;20029;-71
2020/12/30 07:52:08;;;;;;;6.80;3.55;;;2.30;84.60;;;;;;5050539;28;20032;-71
2020/12/30 07:54:33;;;;;;;5.28;2.63;;;2.40;84.60;;;;;;5049273;28;20028;-71
2020/12/30 07:57:13;;;;;;;4.68;2.70;;;2.40;84.60;;;;;;5049138;28;20473;-71
2020/12/30 07:59:40;;;;;;;3.35;2.35;;;2.50;84.60;;;;;;5049238;28;20022;-74
2020/12/30 08:02:10;;;;;;;5.43;2.60;;;2.50;84.40;;;;;;5048066;28;20112;-71
2020/12/30 08:04:37;;;;;;;5.60;2.47;;;2.60;84.40;;;;;;5048701;28;20389;-71
2020/12/30 08:07:04;;;;;;;6.10;4.05;;;2.60;84.30;;;;;;5050226;28;20453;-71
2020/12/30 08:09:41;;;;;;;8.13;3.80;;;2.70;84.20;;;;;;5044007;28;20053;-71
2020/12/30 08:12:08;;;;;;;2.70;2.50;;;2.70;84.10;;;;;;5050237;28;20496;-71
2020/12/30 08:14:36;;;;;;;4.22;2.72;;;2.70;84.10;;;;;;5053076;28;20021;-71
2020/12/30 08:17:07;;;;;;;5.05;2.75;;;2.70;84.00;;;;;;5054044;28;20392;-71
2020/12/30 08:19:37;;;;;;;5.57;3.05;;;2.60;83.90;;;;;;5053997;28;20025;-71
2020/12/30 08:22:19;;;;;;;5.78;2.60;;;2.70;83.90;;;;;;5053774;28;20024;-71
2020/12/30 08:24:46;;;;;;;;;;;2.60;84.00;;;;;;5053805;28;20025;-74
2020/12/30 08:27:14;;;;;;;4.32;2.30;;;2.60;84.00;;;;;;5052368;28;19905;-74
2020/12/30 08:29:42;;;;;;;4.60;2.35;;;2.60;84.00;;;;;;5053844;28;20021;-75
2020/12/30 08:32:29;;;;;;;4.70;2.58;;;2.60;84.10;;;;;;5052123;28;20033;-74
2020/12/30 08:34:57;;;;;;;11.13;4.35;;;2.70;84.30;;;;;;5053127;28;20074;-71
2020/12/30 08:37:26;;;;;;;7.82;3.58;;;2.80;84.20;;;;;;5053520;28;20163;-71
2020/12/30 08:40:00;;;;;;;6.25;2.85;;;2.90;84.20;;;;;;5051979;28;20029;-72
2020/12/30 08:42:41;;;;;;;4.72;2.90;;;2.90;84.10;;;;;;5049851;28;20025;-71
2020/12/30 08:45:08;;;;;;;4.90;2.40;;;3.00;84.00;;;;;;5033140;28;20021;-72
2020/12/30 08:47:38;;;;;;;4.82;2.53;;;3.10;83.80;;;;;;5033409;28;20034;-71
2020/12/30 08:50:13;;;;;;;3.90;2.60;;;3.10;83.70;;;;;;5033464;28;20026;-72
2020/12/30 08:52:42;;;;;;;5.43;2.40;;;3.10;83.70;;;;;;5036158;28;20029;-72
2020/12/30 08:55:09;;;;;;;5.03;3.15;;;3.10;83.60;;;;;;5052611;28;20025;-71
2020/12/30 08:57:35;;;;;;;5.13;2.60;;;3.10;83.70;;;;;;5052998;28;20074;-71
2020/12/30 09:00:26;;;;;;;4.00;2.40;;;3.10;83.70;;;;;;5052007;28;20025;-72
2020/12/30 09:02:53;;;;;;;4.07;1.90;;;3.10;83.80;;;;;;5053063;28;20021;-71
2020/12/30 09:05:29;;;;;;;3.08;2.30;;;3.20;83.80;;;;;;5051339;28;20047;-72
2020/12/30 09:08:10;;;;;;;5.47;2.10;;;3.20;83.70;;;;;;5035663;28;20028;-72
2020/12/30 09:10:36;;;;;;;2.63;1.80;;;3.20;83.80;;;;;;5034650;28;20389;-71
2020/12/30 09:13:12;;;;;;;2.47;1.63;;;3.30;83.70;;;;;;5053327;28;20108;-72
2020/12/30 09:15:38;;;;;;;4.05;2.28;;;3.40;83.70;;;;;;5052332;28;20033;-72
2020/12/30 09:18:04;;;;;;;4.25;1.90;;;3.40;83.60;;;;;;5052598;28;20025;-72
2020/12/30 09:20:33;;;;;;;2.85;1.95;;;3.50;83.60;;;;;;5047015;28;20028;-72
2020/12/30 09:23:00;;;;;;;3.67;1.92;;;3.60;83.50;;;;;;5044792;28;20033;-76
2020/12/30 09:25:28;;;;;;;3.45;1.90;;;3.70;83.40;;;;;;5047535;28;20025;-71
2020/12/30 09:27:54;;;;;;;6.43;3.50;;;3.80;83.50;;;;;;5050128;28;20048;-74
2020/12/30 09:30:23;;;;;;;2.58;1.98;;;3.90;83.30;;;;;;5047158;28;20393;-76
2020/12/30 09:32:49;;;;;;;3.05;2.00;;;4.00;83.10;;;;;;5061645;28;20051;-72
2020/12/30 09:35:17;;;;;;;5.15;2.45;;;4.00;83.00;;;;;;5070619;28;20056;-73
2020/12/30 09:37:51;;;;;;;5.38;2.05;;;4.00;82.70;;;;;;5072093;28;20082;-73
2020/12/30 09:42:45;;;;;;;3.10;1.90;;;4.00;82.80;;;;;;5029804;28;20053;-70
2020/12/30 09:45:16;;;;;;;4.88;2.25;;;4.10;82.80;;;;;;5029840;28;20025;-70
2020/12/30 09:47:42;;;;;;;2.60;2.20;;;4.10;82.80;;;;;;5032621;28;20040;-70
2020/12/30 09:50:12;;;;;;;4.57;2.05;;;4.10;82.70;;;;;;5031851;28;20064;-69
2020/12/30 09:52:39;;;;;;;4.28;2.05;;;4.10;82.70;;;;;;5032250;28;20018;-73
2020/12/30 09:55:06;;;;;;;3.05;2.00;;;4.10;82.60;;;;;;5031396;28;20121;-70
2020/12/30 09:57:33;;;;;;;3.80;1.95;;;4.20;82.60;;;;;;5031563;28;20389;-71
2020/12/30 09:59:59;;;;;;;4.55;2.47;;;4.20;82.50;;;;;;5030622;28;20067;-70
2020/12/30 10:02:28;;;;;;;5.28;1.90;;;4.30;83.10;;;;;;5031503;28;20585;-70
2020/12/30 10:04:53;;;;;;;2.83;2.00;;;4.40;82.30;;;;;;5031438;28;20060;-69
2020/12/30 10:07:19;;;;;;;3.03;1.60;;;4.40;82.30;;;;;;5030560;28;20026;-70
2020/12/30 10:09:45;;;;;;;3.58;1.95;;;4.50;82.20;;;;;;5023202;28;20038;-71
2020/12/30 10:12:10;;;;;;;3.30;1.85;;;4.50;82.10;;;;;;5023442;28;20083;-72
2020/12/30 10:14:36;;;;;;;2.88;1.70;;;4.60;81.80;;;;;;5019753;28;20116;-69
2020/12/30 10:17:02;;;;;;;5.20;1.95;;;4.60;81.90;;;;;;5031333;28;20060;-70
2020/12/30 10:19:27;;;;;;;2.58;1.52;;;4.70;81.80;;;;;;5046817;28;20026;-71
2020/12/30 10:21:53;;;;;;;3.63;1.60;;;4.70;81.60;;;;;;5031306;28;20139;-72
2020/12/30 10:24:18;;;;;;;3.63;1.42;;;4.80;81.40;;;;;;5030847;28;20074;-70
2020/12/30 10:26:44;;;;;;;3.22;2.08;;;4.90;81.30;;;;;;5031354;28;20021;-69
2020/12/30 10:29:10;;;;;;;1.75;1.33;;;4.90;81.00;;;;;;5046520;28;20132;-69
2020/12/30 10:31:35;;;;;;;3.72;1.63;;;4.90;81.10;;;;;;5031463;28;20143;-69
2020/12/30 10:34:01;;;;;;;3.53;2.00;;;4.90;80.90;;;;;;5030756;28;20038;-68
2020/12/30 10:36:32;;;;;;;7.20;3.03;;;5.00;81.00;;;;;;5030429;28;20037;-70
2020/12/30 10:38:59;;;;;;;6.28;2.85;;;5.00;81.10;;;;;;5028274;28;20070;-73
2020/12/30 10:41:25;;;;;;;2.70;1.83;;;5.00;81.00;;;;;;5025280;28;20057;-70
2020/12/30 10:43:50;;;;;;;3.35;1.88;;;5.00;80.70;;;;;;5029712;28;20064;-71
2020/12/30 10:46:17;;;;;;;2.20;1.33;;;5.10;80.40;;;;;;5046415;28;20087;-72
2020/12/30 10:48:47;;;;;;;2.33;1.48;;;5.00;80.50;;;;;;5030921;28;20481;-72
2020/12/30 10:51:14;;;;;;;1.58;1.05;;;5.00;80.30;;;;;;5029908;28;20436;-71
2020/12/30 10:53:40;;;;;;;3.40;1.50;;;5.00;80.50;;;;;;5017636;28;20036;-71
2020/12/30 10:56:08;;;;;;;2.78;1.15;;;5.00;80.20;;;;;;5010897;28;20033;-72
2020/12/30 10:58:34;;;;;;;2.58;1.20;;;5.00;80.10;;;;;;5021599;28;20021;-71
2020/12/30 11:00:59;;;;;;;2.15;1.27;;;5.00;80.20;;;;;;5029595;28;20040;-71
2020/12/30 11:03:25;;;;;;;2.42;1.00;;;5.00;80.20;;;;;;5027098;28;20378;-70
2020/12/30 11:05:50;;;;;;;3.88;1.27;;;5.00;80.20;;;;;;5025368;28;20026;-72
2020/12/30 11:08:16;;;;;;;1.88;1.35;;;5.00;80.00;;;;;;5029947;28;20030;-71
2020/12/30 11:10:41;;;;;;;6.40;1.88;;;5.10;80.00;;;;;;5017859;28;20180;-71
2020/12/30 11:13:07;;;;;;;5.95;2.78;;;5.10;80.10;;;;;;5020777;28;20055;-71
2020/12/30 11:15:35;;;;;;;4.38;2.00;;;5.10;80.00;;;;;;5029440;28;20100;-71
2020/12/30 11:18:02;;;;;;;3.28;2.10;;;5.10;79.80;;;;;;5028993;28;20038;-72
2020/12/30 11:20:28;;;;;;;1.20;1.10;;;5.10;79.60;;;;;;5029055;28;20117;-71
2020/12/30 11:22:53;;;;;;;2.70;1.92;;;5.20;79.70;;;;;;5030307;28;20518;-71
2020/12/30 11:25:19;;;;;;;4.95;1.90;;;5.20;79.70;;;;;;5028593;28;20371;-72
2020/12/30 11:27:44;;;;;;;1.88;1.25;;;5.20;79.30;;;;;;5029719;28;20539;-69
2020/12/30 11:30:10;;;;;;;2.92;1.60;;;5.30;79.30;;;;;;5015896;28;20026;-70
2020/12/30 11:32:35;;;;;;;2.58;1.00;;;5.30;79.50;;;;;;5044883;28;20084;-70
2020/12/30 11:35:01;;;;;;;2.20;1.45;;;5.40;79.70;;;;;;5030300;28;20029;-70
2020/12/30 11:37:26;;;;;;;1.90;1.60;;;5.50;79.10;;;;;;5045362;28;20248;-71
2020/12/30 11:39:52;;;;;;;1.65;1.10;;;5.50;79.20;;;;;;5011468;28;20128;-69
2020/12/30 11:42:17;;;;;;;3.00;1.60;;;5.60;79.00;;;;;;5017833;28;20037;-69
2020/12/30 11:44:43;;;;;;;4.18;1.20;;;5.60;79.10;;;;;;5029962;28;20476;-71
2020/12/30 11:47:08;;;;;;;2.30;1.05;;;5.60;79.00;;;;;;5030229;28;20412;-70
2020/12/30 11:49:34;;;;;;;2.35;1.30;;;5.60;78.60;;;;;;5018809;28;20402;-70
2020/12/30 11:51:59;;;;;;;4.40;1.58;;;5.60;78.90;;;;;;5028617;28;20068;-70
2020/12/30 11:54:25;;;;;;;1.58;1.25;;;5.60;79.20;;;;;;5032938;28;20540;-71
2020/12/30 11:56:51;;;;;;;3.05;1.27;;;5.60;79.00;;;;;;5034352;28;20022;-71
2020/12/30 11:59:17;;;;;;;2.60;1.77;;;5.60;78.90;;;;;;5033058;28;20481;-71
2020/12/30 12:01:42;;;;;;;1.90;1.30;;;5.60;78.80;;;;;;5032566;28;20370;-71
2020/12/30 12:04:08;;;;;;;3.13;1.52;;;5.50;79.00;;;;;;5025559;28;20048;-69
2020/12/30 12:06:33;;;;;;;5.68;2.22;;;5.50;78.60;;;;;;5024335;28;20590;-69
2020/12/30 12:08:59;;;;;;;7.70;4.35;;;5.50;79.30;;;;;;5023446;28;20378;-69
2020/12/30 12:11:24;;;;;;;4.18;2.50;;;5.50;79.00;;;;;;5031244;28;20358;-69
2020/12/30 12:13:50;;;;;;;3.05;1.88;;;5.40;79.10;;;;;;5033331;28;20033;-69
2020/12/30 12:16:16;;;;;;;4.13;2.00;;;5.50;79.30;;;;;;5033066;28;20029;-69
2020/12/30 12:18:41;;;;;;;5.47;1.83;;;5.50;78.90;;;;;;5022991;28;20026;-69
2020/12/30 12:21:07;;;;;;;3.88;1.42;;;5.50;78.70;;;;;;5033741;28;20030;-68
2020/12/30 12:23:32;;;;;;;2.20;1.42;;;5.50;78.60;;;;;;5031857;28;20030;-69
2020/12/30 12:25:58;;;;;;;1.23;1.13;;;5.50;78.70;;;;;;5031912;28;20104;-70
2020/12/30 12:28:36;;;;;;;3.63;1.30;;;5.50;78.90;;;;;;5032457;28;20067;-69
2020/12/30 12:31:01;;;;;;;4.55;1.35;;;5.50;78.90;;;;;;5033404;28;20022;-69
2020/12/30 12:33:27;;;;;;;2.80;1.50;;;5.50;78.70;;;;;;5033148;28;20024;-69
2020/12/30 12:35:53;;;;;;;4.53;2.35;;;5.60;78.80;;;;;;5030954;28;20485;-68
2020/12/30 12:38:18;;;;;;;2.03;1.65;;;5.60;78.80;;;;;;5031447;28;20083;-69
2020/12/30 12:40:44;;;;;;;3.72;2.05;;;5.80;78.80;;;;;;5016823;28;20053;-70
2020/12/30 12:43:09;;;;;;;4.03;1.45;;;5.90;78.90;;;;;;5020765;28;20018;-69
2020/12/30 12:45:35;;;;;;;4.38;1.75;;;6.00;78.80;;;;;;5031653;28;20040;-69
2020/12/30 12:48:01;;;;;;;1.63;1.10;;;6.00;77.90;;;;;;5032971;28;20029;-70
2020/12/30 12:50:27;;;;;;;2.60;1.45;;;6.00;78.20;;;;;;5031950;28;20025;-69
2020/12/30 12:52:52;;;;;;;2.75;1.30;;;6.00;77.90;;;;;;5032049;28;20393;-69
2020/12/30 12:55:18;;;;;;;2.10;1.20;;;6.00;77.90;;;;;;5031161;28;20033;-69
2020/12/30 12:57:43;;;;;;;2.63;1.55;;;5.90;77.60;;;;;;5031590;28;20083;-68
2020/12/30 13:00:09;;;;;;;3.15;1.70;;;5.80;77.60;;;;;;5031009;28;20295;-69
2020/12/30 13:02:34;;;;;;;2.88;1.55;;;5.70;78.00;;;;;;5032876;28;20041;-68